Time;durP1;ratioP1;P1;durP2;ratioP2;P2;SDS_P1;SDS_P2;PMS_P1;PMS_P2;Temp;Humidity;BMP_temperature;BMP_pressure;BME280_temperature;BME280_humidity;BME280_pressure;Samples;Min_cycle;Max_cycle;Signal;HPM_P1;HPM_P2
2022/08/03 00:00:54;;;;;;;8.27;3.17;;;;;;;20.14;100.00;101191.28;5064043;28;20455;-79
2022/08/03 00:03:20;;;;;;;8.60;3.35;;;;;;;19.87;100.00;101183.34;5075231;28;20039;-78
2022/08/03 00:05:48;;;;;;;8.20;2.88;;;;;;;19.82;100.00;101181.97;5068946;28;20505;-78
2022/08/03 00:08:14;;;;;;;7.80;2.92;;;;;;;19.82;100.00;101186.63;5046597;28;20036;-78
2022/08/03 00:10:44;;;;;;;9.52;2.83;;;;;;;19.69;100.00;101186.25;5069345;28;20522;-79
2022/08/03 00:13:15;;;;;;;8.82;3.38;;;;;;;19.45;100.00;101185.22;5063755;28;20032;-76
2022/08/03 00:15:45;;;;;;;10.18;3.35;;;;;;;19.48;100.00;101179.31;5052405;28;20035;-77
2022/08/03 00:18:10;;;;;;;11.90;3.33;;;;;;;19.45;100.00;101180.50;5031948;28;20078;-78
2022/08/03 00:20:41;;;;;;;8.93;3.55;;;;;;;19.39;100.00;101177.56;5066974;28;20032;-77
2022/08/03 00:23:07;;;;;;;18.33;4.18;;;;;;;19.64;100.00;101178.44;5083527;28;20080;-77
2022/08/03 00:25:34;;;;;;;9.25;3.90;;;;;;;19.60;100.00;101172.38;5068647;28;20111;-78
2022/08/03 00:28:00;;;;;;;10.43;3.70;;;;;;;19.73;100.00;101173.78;5081855;28;20036;-78
2022/08/03 00:30:27;;;;;;;8.65;3.42;;;;;;;19.73;100.00;101171.84;5080988;28;20552;-77
2022/08/03 00:32:52;;;;;;;16.00;4.40;;;;;;;19.79;100.00;101175.84;5094930;28;20044;-79
2022/08/03 00:35:17;;;;;;;16.38;4.40;;;;;;;19.82;100.00;101170.84;5063482;28;20036;-78
2022/08/03 00:37:43;;;;;;;10.68;4.82;;;;;;;19.86;100.00;101176.91;5061142;28;20039;-77
2022/08/03 00:40:13;;;;;;;16.85;4.53;;;;;;;19.83;100.00;101175.34;5064002;28;20133;-77
2022/08/03 00:43:06;;;;;;;11.65;5.00;;;;;;;19.81;100.00;101173.78;5095430;28;20032;-77
2022/08/03 00:45:40;;;;;;;14.05;3.25;;;;;;;19.76;100.00;101176.22;5092959;28;20071;-78
2022/08/03 00:48:11;;;;;;;12.02;4.22;;;;;;;19.58;100.00;101171.69;5081543;28;20028;-78
2022/08/03 00:50:41;;;;;;;15.38;4.60;;;;;;;19.56;100.00;101170.09;5100966;28;20028;-78
2022/08/03 00:53:11;;;;;;;10.93;3.88;;;;;;;19.57;100.00;101174.63;5080428;28;20044;-77
2022/08/03 00:55:36;;;;;;;9.68;3.72;;;;;;;19.60;100.00;101166.81;5061135;28;20043;-77
2022/08/03 00:58:05;;;;;;;11.18;3.90;;;;;;;19.42;100.00;101161.41;5080583;28;20040;-78
2022/08/03 01:00:35;;;;;;;13.63;4.53;;;;;;;19.26;100.00;101172.50;5100086;28;20035;-78
2022/08/03 01:03:03;;;;;;;17.55;4.47;;;;;;;19.07;100.00;101170.88;5102135;28;20105;-78
2022/08/03 01:05:37;;;;;;;11.25;4.70;;;;;;;19.00;100.00;101165.16;5065643;28;20028;-77
2022/08/03 01:08:12;;;;;;;13.55;5.40;;;;;;;19.27;100.00;101161.22;5094178;28;20461;-80
2022/08/03 01:11:09;;;;;;;13.32;4.50;;;;;;;19.29;100.00;101152.72;5058715;28;20103;-78
2022/08/03 01:13:44;;;;;;;12.82;4.45;;;;;;;19.29;100.00;101158.28;5098800;28;20035;-79
2022/08/03 01:16:39;;;;;;;7.78;4.75;;;;;;;19.36;100.00;101152.91;5096427;28;20040;-77
2022/08/03 01:19:43;;;;;;;9.93;4.07;;;;;;;19.34;100.00;101150.28;5062713;28;20036;-78
2022/08/03 01:22:40;;;;;;;10.73;4.28;;;;;;;19.35;100.00;101151.16;5098001;28;20453;-77
2022/08/03 01:25:35;;;;;;;9.75;3.85;;;;;;;19.42;100.00;101157.78;5067838;28;20545;-78
2022/08/03 01:28:42;;;;;;;9.80;3.92;;;;;;;19.36;100.00;101151.00;5078139;28;20455;-78
2022/08/03 01:31:12;;;;;;;11.57;4.13;;;;;;;19.27;100.00;101149.25;5084348;28;20032;-77
2022/08/03 01:33:45;;;;;;;14.32;4.85;;;;;;;19.24;100.00;101149.59;5078989;28;20049;-78
2022/08/03 01:36:20;;;;;;;12.63;4.03;;;;;;;19.09;100.00;101154.94;5079077;28;20035;-77
2022/08/03 01:38:52;;;;;;;9.13;3.47;;;;;;;19.06;100.00;101153.38;5097193;28;20032;-78
2022/08/03 01:41:28;;;;;;;9.05;3.78;;;;;;;19.18;100.00;101161.38;5079712;28;20047;-77
2022/08/03 01:43:56;;;;;;;11.73;3.63;;;;;;;18.99;100.00;101154.22;5072121;28;20036;-78
2022/08/03 01:46:24;;;;;;;13.85;4.90;;;;;;;19.08;100.00;101153.19;5081531;28;20091;-78
2022/08/03 01:48:50;;;;;;;17.23;5.53;;;;;;;19.06;100.00;101144.19;5063980;28;20032;-79
2022/08/03 01:51:19;;;;;;;14.43;4.95;;;;;;;18.99;100.00;101145.88;5080557;28;20086;-78
2022/08/03 01:53:49;;;;;;;11.23;4.63;;;;;;;18.92;100.00;101149.38;5057358;28;20085;-78
2022/08/03 01:56:18;;;;;;;13.90;5.70;;;;;;;18.83;100.00;101153.13;5083679;28;20112;-78
2022/08/03 01:58:47;;;;;;;10.15;5.05;;;;;;;18.83;100.00;101150.38;5047466;28;20040;-78
2022/08/03 02:01:15;;;;;;;14.50;4.97;;;;;;;18.72;100.00;101143.16;5061184;28;20124;-77
2022/08/03 02:03:43;;;;;;;12.70;5.32;;;;;;;18.55;100.00;101142.25;5086216;28;20024;-77
2022/08/03 02:06:11;;;;;;;14.52;4.97;;;;;;;18.62;100.00;101148.00;5067166;28;20067;-77
2022/08/03 02:08:42;;;;;;;11.38;4.95;;;;;;;18.62;100.00;101145.22;5068755;28;20051;-79
2022/08/03 02:11:08;;;;;;;11.35;5.05;;;;;;;18.56;100.00;101148.66;5084813;28;20585;-77
2022/08/03 02:13:38;;;;;;;10.85;5.10;;;;;;;18.67;100.00;101147.50;5064694;28;20401;-77
2022/08/03 02:16:06;;;;;;;12.80;5.15;;;;;;;18.74;100.00;101154.09;5098208;28;20065;-76
2022/08/03 02:18:32;;;;;;;11.82;5.90;;;;;;;18.68;100.00;101147.34;5105434;28;20040;-78
2022/08/03 02:21:03;;;;;;;8.88;5.35;;;;;;;18.68;100.00;101144.56;5103069;28;20032;-78
2022/08/03 02:23:29;;;;;;;14.27;5.05;;;;;;;18.65;100.00;101146.81;5070643;28;20043;-77
2022/08/03 02:25:59;;;;;;;19.55;5.32;;;;;;;18.58;100.00;101140.16;5069490;28;20036;-78
2022/08/03 02:28:38;;;;;;;7.53;4.95;;;;;;;18.54;100.00;101143.31;5085332;28;20039;-78
2022/08/03 02:31:11;;;;;;;8.88;5.78;;;;;;;18.62;100.00;101138.81;5068881;28;20050;-77
2022/08/03 02:33:41;;;;;;;12.73;5.30;;;;;;;18.49;100.00;101137.38;5053465;28;20032;-79
2022/08/03 02:36:08;;;;;;;9.82;5.47;;;;;;;18.44;100.00;101138.91;5069743;28;20032;-80
2022/08/03 02:38:39;;;;;;;12.52;5.10;;;;;;;18.52;100.00;101137.03;5070580;28;20042;-78
2022/08/03 02:41:16;;;;;;;12.30;4.93;;;;;;;18.57;100.00;101136.53;5101619;28;20032;-79
2022/08/03 02:43:50;;;;;;;14.60;5.70;;;;;;;18.58;100.00;101131.84;5073790;28;20475;-77
2022/08/03 02:46:19;;;;;;;12.35;5.18;;;;;;;18.67;100.00;101144.72;5083615;28;20032;-79
2022/08/03 02:48:46;;;;;;;10.15;5.97;;;;;;;18.62;100.00;101139.69;5085874;28;20042;-79
2022/08/03 02:51:13;;;;;;;13.18;6.00;;;;;;;18.68;100.00;101139.00;5053443;28;20047;-79
2022/08/03 02:53:44;;;;;;;11.82;6.47;;;;;;;18.65;100.00;101141.25;5102004;28;20035;-78
2022/08/03 02:56:12;;;;;;;15.13;6.18;;;;;;;18.69;100.00;101139.88;5068824;28;20044;-78
2022/08/03 02:58:41;;;;;;;12.82;7.03;;;;;;;18.66;100.00;101132.78;5062953;28;20126;-78
2022/08/03 03:01:08;;;;;;;16.40;6.80;;;;;;;18.67;100.00;101130.84;5101940;28;20032;-78
2022/08/03 03:03:34;;;;;;;18.13;7.20;;;;;;;18.69;100.00;101134.31;5083101;28;20047;-78
2022/08/03 03:06:04;;;;;;;13.02;7.05;;;;;;;18.78;100.00;101141.66;5100413;28;20040;-77
2022/08/03 03:08:30;;;;;;;16.55;6.82;;;;;;;18.76;100.00;101138.19;5065979;28;20365;-79
2022/08/03 03:10:58;;;;;;;18.55;6.68;;;;;;;18.72;100.00;101131.22;5065786;28;20024;-78
2022/08/03 03:13:29;;;;;;;17.90;8.52;;;;;;;18.74;100.00;101132.81;5103714;28;20032;-77
2022/08/03 03:15:58;;;;;;;19.30;7.80;;;;;;;18.73;100.00;101131.06;5081747;28;20043;-78
2022/08/03 03:18:27;;;;;;;11.45;7.50;;;;;;;18.72;100.00;101128.44;5082791;28;20047;-77
2022/08/03 03:20:54;;;;;;;15.65;7.85;;;;;;;18.59;100.00;101128.91;5066447;28;20092;-78
2022/08/03 03:23:24;;;;;;;18.98;8.07;;;;;;;18.64;100.00;101125.66;5100524;28;20032;-78
2022/08/03 03:25:54;;;;;;;23.58;8.20;;;;;;;18.57;100.00;101124.59;5102903;28;20024;-79
2022/08/03 03:28:22;;;;;;;17.35;8.35;;;;;;;18.51;100.00;101132.53;5082752;28;20024;-80
2022/08/03 03:30:50;;;;;;;13.75;8.52;;;;;;;18.61;100.00;101131.53;5083922;28;20464;-78
2022/08/03 03:33:21;;;;;;;22.42;7.80;;;;;;;18.61;100.00;101128.75;5100451;28;20039;-78
2022/08/03 03:35:50;;;;;;;17.50;7.75;;;;;;;18.61;100.00;101125.97;5051763;28;20383;-78
2022/08/03 03:38:19;;;;;;;15.23;7.85;;;;;;;18.52;100.00;101125.94;5098852;28;20070;-78
2022/08/03 03:40:45;;;;;;;12.77;7.18;;;;;;;18.55;100.00;101121.97;5086100;28;20048;-78
2022/08/03 03:43:14;;;;;;;17.75;9.05;;;;;;;18.48;100.00;101118.13;5080189;28;20034;-78
2022/08/03 03:45:41;;;;;;;18.98;10.02;;;;;;;18.50;100.00;101129.94;5103180;28;20044;-78
2022/08/03 03:48:10;;;;;;;20.05;8.48;;;;;;;18.47;100.00;101135.81;5070637;28;20118;-78
2022/08/03 03:50:39;;;;;;;21.83;9.25;;;;;;;18.58;100.00;101129.06;5082311;28;20020;-77
2022/08/03 03:53:08;;;;;;;17.58;9.13;;;;;;;18.55;100.00;101121.97;5081371;28;20036;-78
2022/08/03 03:55:37;;;;;;;15.40;8.70;;;;;;;18.58;100.00;101129.97;5084720;28;20372;-81
2022/08/03 03:58:03;;;;;;;13.75;8.75;;;;;;;18.56;100.00;101132.03;5099897;28;20020;-77
2022/08/03 04:00:33;;;;;;;20.70;8.45;;;;;;;18.47;100.00;101135.81;5082936;28;20065;-79
2022/08/03 04:03:00;;;;;;;26.83;8.57;;;;;;;18.54;100.00;101135.00;5096312;28;20024;-76
2022/08/03 04:11:15;;;;;;;17.55;8.55;;;;;;;18.45;100.00;101140.66;5073400;28;20399;-79
2022/08/03 04:13:55;;;;;;;21.63;8.82;;;;;;;18.52;100.00;101127.84;5086739;28;20072;-79
2022/08/03 04:16:26;;;;;;;18.02;8.82;;;;;;;18.44;100.00;101128.69;5089801;28;20095;-79
2022/08/03 04:18:57;;;;;;;18.67;9.15;;;;;;;18.39;100.00;101122.78;5086464;28;20036;-79
2022/08/03 04:21:24;;;;;;;24.00;9.00;;;;;;;18.43;100.00;101126.97;5081112;28;20498;-77
2022/08/03 04:23:54;;;;;;;21.92;8.75;;;;;;;18.57;100.00;101133.78;5076492;28;20039;-77
2022/08/03 04:26:21;;;;;;;20.58;8.55;;;;;;;18.57;100.00;101135.69;5096569;28;20040;-78
2022/08/03 04:28:50;;;;;;;14.85;8.07;;;;;;;18.45;100.00;101127.66;5061562;28;20055;-79
2022/08/03 04:31:17;;;;;;;13.65;8.57;;;;;;;18.47;100.00;101124.72;5070323;28;20040;-77
2022/08/03 04:33:44;;;;;;;24.30;9.20;;;;;;;18.51;100.00;101129.78;5093662;28;20039;-77
2022/08/03 04:36:18;;;;;;;16.90;8.35;;;;;;;18.49;100.00;101131.81;5095019;28;20032;-77
2022/08/03 04:38:59;;;;;;;16.55;8.65;;;;;;;18.57;100.00;101138.47;5073238;28;20044;-78
2022/08/03 04:41:27;;;;;;;17.63;8.80;;;;;;;18.57;100.00;101138.47;5074546;28;20043;-77
2022/08/03 04:43:56;;;;;;;18.52;8.68;;;;;;;18.54;100.00;101142.41;5074492;28;20051;-78
2022/08/03 04:46:25;;;;;;;17.42;8.52;;;;;;;18.61;100.00;101143.50;5076447;28;20028;-78
2022/08/03 04:48:52;;;;;;;17.23;9.35;;;;;;;18.68;100.00;101143.69;5070332;28;20035;-77
2022/08/03 04:51:18;;;;;;;21.23;9.52;;;;;;;18.69;100.00;101143.53;5074581;28;20438;-78
2022/08/03 04:53:43;;;;;;;20.95;9.13;;;;;;;18.67;100.00;101142.81;5058590;28;20083;-78
2022/08/03 04:56:09;;;;;;;19.33;9.45;;;;;;;18.74;100.00;101145.78;5077629;28;20028;-77
2022/08/03 04:58:39;;;;;;;22.17;8.90;;;;;;;18.76;100.00;101145.63;5073020;28;20779;-79
2022/08/03 05:01:04;;;;;;;24.13;9.25;;;;;;;18.79;100.00;101148.94;5046704;28;20067;-79
2022/08/03 05:03:31;;;;;;;20.33;10.10;;;;;;;18.75;100.00;101153.06;5065109;28;20517;-78
2022/08/03 05:05:56;;;;;;;22.00;10.63;;;;;;;18.72;100.00;101154.28;5059929;28;20036;-79
2022/08/03 05:08:22;;;;;;;14.95;9.80;;;;;;;18.79;100.00;101146.16;5071243;28;20040;-79
2022/08/03 05:10:47;;;;;;;22.27;11.18;;;;;;;18.77;100.00;101153.78;5077326;28;20094;-78
2022/08/03 05:13:14;;;;;;;22.70;10.18;;;;;;;18.74;100.00;101157.75;5059482;28;20059;-80
2022/08/03 05:15:41;;;;;;;20.77;11.07;;;;;;;18.90;100.00;101158.88;5073999;28;20029;-77
2022/08/03 05:18:06;;;;;;;25.08;9.95;;;;;;;18.95;100.00;101150.91;5031890;28;20044;-79
2022/08/03 05:20:33;;;;;;;26.48;9.95;;;;;;;19.03;100.00;101161.19;5076924;28;20131;-77
2022/08/03 05:23:02;;;;;;;18.75;9.02;;;;;;;19.16;100.00;101158.78;5055708;28;20097;-76
2022/08/03 05:25:29;;;;;;;25.33;9.57;;;;;;;19.23;100.00;101162.63;5062301;28;20075;-77
2022/08/03 05:27:55;;;;;;;17.92;8.15;;;;;;;19.37;100.00;101158.28;5071372;28;20047;-77
2022/08/03 05:30:21;;;;;;;15.60;8.32;;;;;;;19.56;100.00;101161.75;5073279;28;20055;-76
2022/08/03 05:32:46;;;;;;;17.42;7.75;;;;;;;19.88;100.00;101163.72;5027713;28;20043;-78
2022/08/03 05:35:13;;;;;;;17.55;8.82;;;;;;;19.91;100.00;101160.59;5070526;28;20517;-77
2022/08/03 05:37:54;;;;;;;13.93;7.15;;;;;;;20.13;100.00;101163.66;5038713;28;20060;-77
2022/08/03 05:40:19;;;;;;;16.20;6.95;;;;;;;20.41;100.00;101166.03;5072144;28;20032;-77
2022/08/03 05:42:45;;;;;;;17.98;7.43;;;;;;;20.36;100.00;101172.97;5051083;28;20037;-76
2022/08/03 05:45:18;;;;;;;16.35;7.38;;;;;;;20.76;100.00;101167.50;5071666;28;20033;-77
2022/08/03 05:47:45;;;;;;;14.82;7.20;;;;;;;20.92;100.00;101174.88;5071836;28;20404;-76
2022/08/03 05:50:13;;;;;;;14.85;7.07;;;;;;;20.97;100.00;101174.34;5071694;28;20024;-77
2022/08/03 05:52:39;;;;;;;21.88;6.65;;;;;;;20.94;100.00;101167.25;5072411;28;20036;-78
2022/08/03 05:55:06;;;;;;;21.25;6.60;;;;;;;21.08;100.00;101168.38;5071057;28;20033;-77
2022/08/03 05:57:33;;;;;;;16.10;6.18;;;;;;;21.30;100.00;101166.69;5066657;28;20103;-77
2022/08/03 06:00:06;;;;;;;14.50;6.22;;;;;;;21.51;100.00;101179.94;5070177;28;20089;-77
2022/08/03 06:02:34;;;;;;;20.13;5.55;;;;;;;21.52;100.00;101180.84;5072160;28;20028;-78
2022/08/03 06:04:59;;;;;;;12.95;5.40;;;;;;;21.70;100.00;101177.72;5073947;28;20029;-77
2022/08/03 06:07:28;;;;;;;20.92;4.90;;;;;;;21.84;100.00;101182.47;5053785;28;20036;-76
2022/08/03 06:09:53;;;;;;;14.43;4.65;;;;;;;22.12;100.00;101188.31;5068293;28;20033;-76
2022/08/03 06:12:48;;;;;;;18.50;4.22;;;;;;;22.58;100.00;101190.13;5080038;28;20055;-79
2022/08/03 06:15:17;;;;;;;19.50;4.30;;;;;;;22.55;100.00;101180.19;5074824;28;20032;-77
2022/08/03 06:17:47;;;;;;;12.20;3.47;;;;;;;22.57;100.00;101193.97;5078940;28;20063;-77
2022/08/03 06:20:16;;;;;;;9.38;3.08;;;;;;;22.89;100.00;101177.84;5058542;28;20082;-77
2022/08/03 06:22:43;;;;;;;6.93;2.40;;;;;;;23.12;100.00;101188.94;5080808;28;20056;-79
2022/08/03 06:25:09;;;;;;;9.88;2.67;;;;;;;22.93;100.00;101180.06;5051763;28;20039;-78
2022/08/03 06:27:38;;;;;;;8.43;2.20;;;;;;;22.86;100.00;101189.44;5051024;28;20446;-78
2022/08/03 06:30:10;;;;;;;8.25;2.08;;;;;;;23.31;100.00;101187.44;5046122;28;20028;-78
2022/08/03 06:32:38;;;;;;;9.82;2.53;;;;;;;23.91;100.00;101189.97;5046498;28;20056;-77
2022/08/03 06:35:05;;;;;;;12.02;2.47;;;;;;;23.80;100.00;101192.22;5079921;28;20066;-76
2022/08/03 06:37:31;;;;;;;15.50;2.47;;;;;;;24.13;100.00;101188.03;5078855;28;20056;-77
2022/08/03 06:39:57;;;;;;;18.65;2.97;;;;;;;23.88;100.00;101187.63;5085276;28;20055;-78
2022/08/03 06:42:23;;;;;;;8.20;2.05;;;;;;;24.53;100.00;101194.78;5068853;28;20434;-78
2022/08/03 06:44:51;;;;;;;11.70;2.20;;;;;;;24.46;100.00;101201.41;5085742;28;20488;-79
2022/08/03 06:47:16;;;;;;;10.02;2.33;;;;;;;24.64;100.00;101200.91;5059570;28;20044;-78
2022/08/03 06:49:42;;;;;;;16.05;2.05;;;;;;;25.02;100.00;101195.72;5094003;28;20048;-81
2022/08/03 06:52:09;;;;;;;10.13;1.90;;;;;;;24.54;100.00;101190.03;5044931;28;20044;-82
2022/08/03 06:54:37;;;;;;;8.43;1.23;;;;;;;24.49;100.00;101187.00;5098622;28;20063;-81
2022/08/03 06:57:05;;;;;;;9.52;1.38;;;;;;;24.74;100.00;101193.88;5080355;28;20099;-80
2022/08/03 06:59:38;;;;;;;11.10;1.67;;;;;;;25.07;100.00;101197.88;5097159;28;20056;-82
2022/08/03 07:02:08;;;;;;;4.80;1.58;;;;;;;25.60;100.00;101188.81;5092026;28;20071;-79
2022/08/03 07:04:35;;;;;;;8.07;1.67;;;;;;;24.93;100.00;101191.38;5096643;28;20068;-81
2022/08/03 07:07:00;;;;;;;4.82;1.30;;;;;;;24.74;100.00;101184.59;5097069;28;20028;-83
2022/08/03 07:09:28;;;;;;;12.15;1.77;;;;;;;24.51;100.00;101191.31;5098829;28;20032;-81
2022/08/03 07:11:54;;;;;;;11.18;1.80;;;;;;;24.23;100.00;101191.34;5097636;28;20029;-80
2022/08/03 07:14:22;;;;;;;7.30;1.25;;;;;;;24.50;100.00;101197.16;5062093;28;20039;-83
2022/08/03 07:16:47;;;;;;;8.55;1.40;;;;;;;24.83;100.00;101200.16;5075114;28;20056;-80
2022/08/03 07:19:13;;;;;;;8.05;1.58;;;;;;;24.94;100.00;101207.97;5077311;28;20068;-81
2022/08/03 07:21:40;;;;;;;7.07;1.58;;;;;;;25.09;100.00;101206.97;5077999;28;20056;-80
2022/08/03 07:24:06;;;;;;;10.90;1.60;;;;;;;25.52;100.00;101206.69;5059998;28;20033;-82
2022/08/03 07:26:32;;;;;;;10.32;1.80;;;;;;;26.02;100.00;101204.44;5079371;28;20032;-81
2022/08/03 07:29:03;;;;;;;11.50;1.52;;;;;;;25.39;100.00;101210.31;5097500;28;20051;-80
2022/08/03 07:31:29;;;;;;;7.68;1.25;;;;;;;25.53;100.00;101208.44;5094970;28;20052;-80
2022/08/03 07:33:54;;;;;;;6.80;1.00;;;;;;;25.90;100.00;101220.13;5091586;28;20036;-82
2022/08/03 07:36:20;;;;;;;8.98;1.38;;;;;;;26.06;100.00;101218.03;5096345;28;20024;-80
2022/08/03 07:38:47;;;;;;;4.90;1.13;;;;;;;26.29;100.00;101211.97;5078437;28;20109;-82
2022/08/03 07:41:13;;;;;;;5.93;1.10;;;;;;;26.51;100.00;101210.63;5079424;28;20037;-80
2022/08/03 07:43:40;;;;;;;7.63;1.35;;;;;;;26.42;100.00;101203.53;5077544;28;20500;-79
2022/08/03 07:46:06;;;;;;;10.38;1.42;;;;;;;26.37;100.00;101209.81;5078435;28;20036;-82
2022/08/03 07:48:32;;;;;;;7.93;1.23;;;;;;;25.60;100.00;101205.66;5095896;28;20064;-82
2022/08/03 07:50:59;;;;;;;8.02;1.33;;;;;;;26.10;100.00;101208.94;5078613;28;20127;-82
2022/08/03 07:53:26;;;;;;;6.25;1.10;;;;;;;25.39;100.00;101203.88;5096372;28;20112;-80
2022/08/03 07:55:52;;;;;;;9.77;1.20;;;;;;;25.67;100.00;101204.56;5058395;28;20032;-81
2022/08/03 07:58:18;;;;;;;6.60;1.25;;;;;;;26.06;100.00;101204.84;5076853;28;20041;-82
2022/08/03 08:00:44;;;;;;;3.90;0.90;;;;;;;26.75;100.00;101203.50;5063513;28;20020;-82
2022/08/03 08:03:12;;;;;;;7.28;1.40;;;;;;;26.04;100.00;101207.03;5080772;28;20033;-81
2022/08/03 08:05:38;;;;;;;5.82;1.08;;;;;;;26.02;100.00;101214.78;5096999;28;20039;-80
2022/08/03 08:08:06;;;;;;;7.72;1.10;;;;;;;26.47;100.00;101206.56;5061444;28;20036;-80
2022/08/03 08:10:31;;;;;;;4.35;1.35;;;;;;;26.12;100.00;101211.53;5078773;28;20038;-81
2022/08/03 08:12:57;;;;;;;14.57;1.38;;;;;;;26.98;100.00;101218.13;5079907;28;20040;-81
2022/08/03 08:15:23;;;;;;;7.47;1.30;;;;;;;25.90;100.00;101202.44;5095852;28;20033;-81
2022/08/03 08:17:56;;;;;;;9.48;1.52;;;;;;;25.53;100.00;101205.63;5093368;28;20514;-80
2022/08/03 08:20:24;;;;;;;10.38;1.50;;;;;;;25.99;100.00;101204.84;5094196;28;20019;-82
2022/08/03 08:22:51;;;;;;;15.55;1.77;;;;;;;27.24;100.00;101203.94;5097517;28;20024;-82
2022/08/03 08:25:17;;;;;;;9.57;1.58;;;;;;;27.15;100.00;101213.72;5096816;28;20051;-81
2022/08/03 08:27:45;;;;;;;8.75;1.20;;;;;;;27.94;97.29;101203.16;5096325;28;20088;-81
2022/08/03 08:30:12;;;;;;;12.88;1.35;;;;;;;28.65;90.88;101211.41;5097527;28;20040;-82
2022/08/03 08:32:38;;;;;;;10.10;1.27;;;;;;;28.14;93.47;101204.91;5096340;28;20052;-80
2022/08/03 08:35:07;;;;;;;9.02;1.35;;;;;;;28.38;87.54;101217.25;5096188;28;20054;-81
2022/08/03 08:37:34;;;;;;;9.18;1.20;;;;;;;28.48;85.49;101192.22;5096367;28;20400;-82
2022/08/03 08:40:01;;;;;;;12.70;1.55;;;;;;;28.58;83.01;101198.25;5094129;28;20037;-82
2022/08/03 08:42:31;;;;;;;6.72;1.15;;;;;;;28.38;82.34;101201.25;5096877;28;20028;-81
2022/08/03 08:45:00;;;;;;;7.35;1.10;;;;;;;28.49;80.00;101204.38;5095584;28;20012;-81
2022/08/03 08:47:29;;;;;;;10.63;1.67;;;;;;;28.53;80.52;101208.44;5096379;28;20083;-80
2022/08/03 08:49:58;;;;;;;6.75;1.30;;;;;;;29.37;75.16;101203.19;5092788;28;20039;-81
2022/08/03 08:52:28;;;;;;;7.43;1.88;;;;;;;28.95;78.28;101197.38;5093887;28;20085;-81
2022/08/03 08:55:05;;;;;;;9.82;1.60;;;;;;;29.34;76.42;101212.13;5095436;28;20053;-80
2022/08/03 08:57:36;;;;;;;10.60;1.00;;;;;;;29.10;75.78;101205.44;5096102;28;20036;-81
2022/08/03 09:00:05;;;;;;;14.10;1.77;;;;;;;29.12;74.24;101206.06;5097256;28;20051;-81
2022/08/03 09:02:31;;;;;;;8.35;1.40;;;;;;;28.54;77.72;101196.09;5096415;28;20020;-81
2022/08/03 09:05:00;;;;;;;6.43;0.88;;;;;;;29.50;73.03;101200.16;5095995;28;20025;-80
2022/08/03 09:07:28;;;;;;;7.85;1.33;;;;;;;29.65;73.48;101196.91;5096528;28;20043;-82
2022/08/03 09:09:55;;;;;;;6.93;1.27;;;;;;;29.24;74.98;101194.91;5087120;28;20047;-81
2022/08/03 09:12:25;;;;;;;8.23;1.17;;;;;;;29.53;73.82;101193.16;5079929;28;20484;-80
2022/08/03 09:14:51;;;;;;;9.35;1.20;;;;;;;29.55;72.79;101201.38;5063269;28;20048;-82
2022/08/03 09:17:18;;;;;;;9.60;1.45;;;;;;;29.42;74.49;101192.03;5080203;28;20030;-81
2022/08/03 09:20:09;;;;;;;7.47;1.25;;;;;;;29.70;73.33;101197.03;5096665;28;20039;-82
2022/08/03 09:22:50;;;;;;;5.55;1.25;;;;;;;29.40;74.96;101196.19;5080383;28;20105;-81
2022/08/03 09:25:16;;;;;;;13.40;1.30;;;;;;;29.91;70.54;101188.25;5097669;28;20040;-82
2022/08/03 09:27:45;;;;;;;4.72;1.10;;;;;;;29.93;72.06;101186.94;5096316;28;20013;-81
2022/08/03 09:30:16;;;;;;;8.35;0.93;;;;;;;29.91;71.68;101191.09;5079651;28;20009;-81
2022/08/03 09:32:44;;;;;;;;;;;;;;;29.79;71.12;101193.88;5088095;28;20021;-81
2022/08/03 09:35:12;;;;;;;6.28;0.90;;;;;;;30.40;67.26;101197.44;5095561;28;19911;-81
2022/08/03 09:37:38;;;;;;;5.30;1.02;;;;;;;30.51;65.92;101190.06;5096280;28;20499;-82
2022/08/03 09:40:05;;;;;;;12.38;1.23;;;;;;;30.53;65.72;101196.31;5079001;28;20039;-81
2022/08/03 09:42:36;;;;;;;9.70;1.17;;;;;;;30.28;66.34;101196.56;5097474;28;20077;-82
2022/08/03 09:45:03;;;;;;;8.05;1.58;;;;;;;30.76;65.55;101195.44;5078722;28;20085;-81
2022/08/03 09:47:33;;;;;;;14.85;1.40;;;;;;;30.41;66.66;101194.38;5067991;28;20579;-81
2022/08/03 09:50:05;;;;;;;12.73;1.25;;;;;;;30.82;65.37;101191.63;5058783;28;20021;-82
2022/08/03 09:52:35;;;;;;;9.23;1.10;;;;;;;31.02;63.72;101193.22;5090623;28;20039;-81
2022/08/03 09:55:12;;;;;;;6.30;1.67;;;;;;;31.27;60.06;101205.09;5095204;28;20048;-82
2022/08/03 09:57:40;;;;;;;10.13;1.40;;;;;;;30.34;64.87;101195.56;5078760;28;20019;-81
2022/08/03 10:00:10;;;;;;;8.50;1.23;;;;;;;30.80;63.06;101193.84;5095615;28;20020;-80
2022/08/03 10:02:37;;;;;;;14.23;1.40;;;;;;;31.18;61.94;101198.09;5095798;28;20044;-82
2022/08/03 10:05:04;;;;;;;9.40;1.08;;;;;;;30.84;62.52;101206.38;5096015;28;20033;-80
2022/08/03 10:07:46;;;;;;;11.50;1.33;;;;;;;31.21;61.94;101199.56;5097098;28;20031;-82
2022/08/03 10:10:13;;;;;;;4.80;0.70;;;;;;;31.24;60.03;101190.56;5097212;28;20068;-81
2022/08/03 10:12:43;;;;;;;6.20;1.45;;;;;;;31.27;61.58;101182.44;5063395;28;20009;-82
2022/08/03 10:15:09;;;;;;;6.97;1.23;;;;;;;31.09;60.64;101191.97;5097893;28;20039;-82
2022/08/03 10:17:38;;;;;;;9.88;1.60;;;;;;;31.13;59.99;101187.53;5083915;28;20015;-82
2022/08/03 10:20:08;;;;;;;9.15;1.52;;;;;;;31.27;59.77;101188.09;5051495;28;20465;-81
2022/08/03 10:22:40;;;;;;;12.70;1.20;;;;;;;31.52;58.67;101176.44;5098970;28;20043;-81
2022/08/03 10:25:11;;;;;;;16.88;2.08;;;;;;;31.88;57.75;101193.25;5099196;28;20024;-82
2022/08/03 10:27:40;;;;;;;11.20;1.67;;;;;;;31.90;57.27;101191.00;5100124;28;20025;-82
2022/08/03 10:30:10;;;;;;;23.55;1.92;;;;;;;31.39;57.64;101181.53;5075403;28;20038;-81
2022/08/03 10:32:48;;;;;;;15.47;1.93;;;;;;;31.74;56.95;101177.69;5079952;28;20044;-81
2022/08/03 10:35:16;;;;;;;18.58;2.22;;;;;;;32.00;55.23;101179.84;5080710;28;20088;-81
2022/08/03 10:37:59;;;;;;;22.25;2.55;;;;;;;31.55;56.05;101175.09;5089300;28;20052;-81
2022/08/03 10:40:28;;;;;;;25.20;2.50;;;;;;;32.13;54.41;101170.19;5083976;28;20036;-82
2022/08/03 10:43:10;;;;;;;18.58;1.98;;;;;;;32.04;55.81;101169.72;5100310;28;20029;-82
2022/08/03 10:45:41;;;;;;;20.88;2.70;;;;;;;32.40;54.46;101170.34;5101054;28;20025;-81
2022/08/03 10:48:09;;;;;;;17.33;2.33;;;;;;;31.75;55.02;101165.25;5067476;28;20017;-82
2022/08/03 10:50:35;;;;;;;20.73;2.05;;;;;;;32.05;54.89;101170.56;5066933;28;20021;-82
2022/08/03 10:53:06;;;;;;;20.55;3.35;;;;;;;31.64;56.50;101159.38;5098157;28;20036;-82
2022/08/03 10:58:35;;;;;;;24.33;2.28;;;;;;;31.92;56.99;101162.44;5107792;28;20014;-80
2022/08/03 11:01:02;;;;;;;13.70;2.05;;;;;;;31.88;53.05;101150.75;5101231;28;20054;-81
2022/08/03 11:03:31;;;;;;;21.42;2.60;;;;;;;32.05;54.21;101143.09;5118852;28;20015;-83
2022/08/03 11:06:17;;;;;;;13.77;2.13;;;;;;;31.99;54.20;101146.09;5118877;28;20046;-81
2022/08/03 11:09:09;;;;;;;15.68;2.13;;;;;;;31.94;54.92;101144.03;5102867;28;20024;-80
2022/08/03 11:11:39;;;;;;;15.95;2.53;;;;;;;32.13;53.30;101136.19;5101893;28;20020;-82
2022/08/03 11:14:14;;;;;;;13.65;2.05;;;;;;;32.56;52.00;101134.53;5120758;28;20032;-81
2022/08/03 11:16:46;;;;;;;22.63;2.50;;;;;;;32.37;52.82;101127.44;5104025;28;20043;-81
2022/08/03 11:19:18;;;;;;;27.13;2.53;;;;;;;31.95;52.14;101127.91;5102577;28;20032;-82
2022/08/03 11:21:52;;;;;;;19.25;2.50;;;;;;;32.43;50.30;101135.81;5102343;28;20032;-81
2022/08/03 11:24:56;;;;;;;24.08;2.05;;;;;;;32.28;52.03;101129.03;5119513;28;20045;-82
2022/08/03 11:27:30;;;;;;;21.33;2.03;;;;;;;32.29;52.63;101133.56;5116890;28;20020;-82
2022/08/03 11:30:06;;;;;;;13.43;1.13;;;;;;;32.57;50.90;101132.56;5081946;28;20024;-82
2022/08/03 11:32:36;;;;;;;18.25;1.45;;;;;;;32.44;51.34;101136.66;5101450;28;20039;-81
2022/08/03 11:35:16;;;;;;;12.20;1.70;;;;;;;32.66;49.91;101128.19;5084332;28;20038;-82